sensor_id;sensor_type;location;lat;lon;timestamp;pressure;altitude;pressure_sealevel;temperature;humidity
33496;BME280;19836;55.812;37.560;2024-03-02T00:00:06;100902.81;;;6.57;65.63
33496;BME280;19836;55.812;37.560;2024-03-02T00:02:44;100905.47;;;6.55;65.93
33496;BME280;19836;55.812;37.560;2024-03-02T00:05:15;100906.31;;;6.45;65.80
33496;BME280;19836;55.812;37.560;2024-03-02T00:07:42;100902.75;;;6.43;66.06
33496;BME280;19836;55.812;37.560;2024-03-02T00:10:10;100895.63;;;6.43;66.24
33496;BME280;19836;55.812;37.560;2024-03-02T00:18:35;100894.72;;;6.37;66.01
33496;BME280;19836;55.812;37.560;2024-03-02T00:21:29;100885.78;;;6.26;66.11
33496;BME280;19836;55.812;37.560;2024-03-02T00:24:24;100884.88;;;6.17;66.17
33496;BME280;19836;55.812;37.560;2024-03-02T00:32:31;100885.69;;;6.11;66.20
33496;BME280;19836;55.812;37.560;2024-03-02T00:35:04;100889.28;;;6.14;66.37
33496;BME280;19836;55.812;37.560;2024-03-02T00:38:15;100888.44;;;6.20;66.36
33496;BME280;19836;55.812;37.560;2024-03-02T00:40:42;100894.59;;;6.13;66.36
33496;BME280;19836;55.812;37.560;2024-03-02T01:08:00;100908.69;;;6.00;66.27
33496;BME280;19836;55.812;37.560;2024-03-02T01:10:34;100914.00;;;5.96;66.32
33496;BME280;19836;55.812;37.560;2024-03-02T01:13:04;100916.63;;;5.94;66.33
33496;BME280;19836;55.812;37.560;2024-03-02T01:15:36;100917.50;;;5.92;66.30
33496;BME280;19836;55.812;37.560;2024-03-02T01:18:11;100916.56;;;5.85;66.64
33496;BME280;19836;55.812;37.560;2024-03-02T01:20:38;100914.88;;;5.97;66.26
33496;BME280;19836;55.812;37.560;2024-03-02T02:38:03;100930.78;;;5.86;66.60
33496;BME280;19836;55.812;37.560;2024-03-02T02:58:12;100925.59;;;6.09;66.07
33496;BME280;19836;55.812;37.560;2024-03-02T03:00:38;100927.28;;;5.97;66.07
33496;BME280;19836;55.812;37.560;2024-03-02T03:03:05;100922.84;;;5.93;66.46
33496;BME280;19836;55.812;37.560;2024-03-02T03:05:32;100926.44;;;5.98;66.28
33496;BME280;19836;55.812;37.560;2024-03-02T03:08:02;100917.50;;;5.90;66.57
33496;BME280;19836;55.812;37.560;2024-03-02T03:10:30;100929.97;;;5.98;66.47
33496;BME280;19836;55.812;37.560;2024-03-02T03:13:00;100931.78;;;6.03;66.31
33496;BME280;19836;55.812;37.560;2024-03-02T03:19:51;100936.28;;;6.14;66.23
33496;BME280;19836;55.812;37.560;2024-03-02T03:22:17;100939.88;;;6.19;66.11
33496;BME280;19836;55.812;37.560;2024-03-02T03:24:44;100935.44;;;6.18;66.38
33496;BME280;19836;55.812;37.560;2024-03-02T03:27:13;100922.94;;;6.09;66.16
33496;BME280;19836;55.812;37.560;2024-03-02T03:29:40;100929.06;;;5.95;66.18
33496;BME280;19836;55.812;37.560;2024-03-02T03:32:06;100930.81;;;5.93;66.19
33496;BME280;19836;55.812;37.560;2024-03-02T03:34:33;100926.31;;;5.84;66.33
33496;BME280;19836;55.812;37.560;2024-03-02T03:37:00;100928.09;;;5.86;66.46
33496;BME280;19836;55.812;37.560;2024-03-02T03:39:27;100928.06;;;5.82;66.16
33496;BME280;19836;55.812;37.560;2024-03-02T03:41:57;100924.44;;;5.77;66.50
33496;BME280;19836;55.812;37.560;2024-03-02T03:44:24;100930.63;;;5.73;66.30
33496;BME280;19836;55.812;37.560;2024-03-02T04:27:10;100923.84;;;6.10;65.36
33496;BME280;19836;55.812;37.560;2024-03-02T04:29:38;100916.75;;;6.12;65.25
33496;BME280;19836;55.812;37.560;2024-03-02T05:16:04;100913.22;;;6.16;65.62
33496;BME280;19836;55.812;37.560;2024-03-02T05:21:49;100913.22;;;6.12;65.11
33496;BME280;19836;55.812;37.560;2024-03-02T05:24:16;100917.66;;;6.13;65.34
33496;BME280;19836;55.812;37.560;2024-03-02T05:26:45;100915.88;;;6.16;65.10
33496;BME280;19836;55.812;37.560;2024-03-02T05:29:16;100921.31;;;6.28;65.22
33496;BME280;19836;55.812;37.560;2024-03-02T05:52:20;100939.97;;;6.36;64.71
33496;BME280;19836;55.812;37.560;2024-03-02T05:54:47;100940.91;;;6.41;64.80
33496;BME280;19836;55.812;37.560;2024-03-02T05:57:16;100941.84;;;6.53;65.03
33496;BME280;19836;55.812;37.560;2024-03-02T05:59:48;100946.31;;;6.60;64.84
33496;BME280;19836;55.812;37.560;2024-03-02T06:02:17;100945.41;;;6.55;64.80
33496;BME280;19836;55.812;37.560;2024-03-02T06:04:44;100950.88;;;6.85;65.06
33496;BME280;19836;55.812;37.560;2024-03-02T06:07:13;100949.16;;;7.09;65.31
33496;BME280;19836;55.812;37.560;2024-03-02T06:09:46;100949.13;;;6.92;64.62
33496;BME280;19836;55.812;37.560;2024-03-02T06:12:27;100942.78;;;6.63;64.50
33496;BME280;19836;55.812;37.560;2024-03-02T06:15:29;100940.94;;;6.47;64.85
33496;BME280;19836;55.812;37.560;2024-03-02T06:17:57;100941.78;;;6.41;65.17
33496;BME280;19836;55.812;37.560;2024-03-02T06:29:36;100947.88;;;6.21;65.04
33496;BME280;19836;55.812;37.560;2024-03-02T06:32:07;100950.56;;;6.25;64.95
33496;BME280;19836;55.812;37.560;2024-03-02T06:34:34;100948.75;;;6.21;65.14
33496;BME280;19836;55.812;37.560;2024-03-02T06:37:04;100945.25;;;6.31;65.09
33496;BME280;19836;55.812;37.560;2024-03-02T06:39:31;100935.53;;;6.38;65.09
33496;BME280;19836;55.812;37.560;2024-03-02T06:42:00;100938.22;;;6.42;64.91
33496;BME280;19836;55.812;37.560;2024-03-02T06:44:29;100944.50;;;6.54;64.79
33496;BME280;19836;55.812;37.560;2024-03-02T06:47:01;100947.19;;;6.57;64.61
33496;BME280;19836;55.812;37.560;2024-03-02T06:49:27;100942.75;;;6.59;64.54
33496;BME280;19836;55.812;37.560;2024-03-02T06:51:54;100941.88;;;6.57;64.55
33496;BME280;19836;55.812;37.560;2024-03-02T06:54:21;100944.47;;;6.50;64.08
33496;BME280;19836;55.812;37.560;2024-03-02T06:56:47;100942.66;;;6.44;64.16
33496;BME280;19836;55.812;37.560;2024-03-02T06:59:13;100941.78;;;6.41;64.47
33496;BME280;19836;55.812;37.560;2024-03-02T07:01:39;100947.09;;;6.41;64.24
33496;BME280;19836;55.812;37.560;2024-03-02T07:04:05;100945.31;;;6.40;64.51
33496;BME280;19836;55.812;37.560;2024-03-02T07:06:32;100952.31;;;6.23;63.98
33496;BME280;19836;55.812;37.560;2024-03-02T07:08:58;100950.47;;;6.14;64.12
33496;BME280;19836;55.812;37.560;2024-03-02T07:11:24;100952.28;;;6.18;64.47
33496;BME280;19836;55.812;37.560;2024-03-02T07:13:50;100955.84;;;6.22;64.53
33496;BME280;19836;55.812;37.560;2024-03-02T07:16:16;100961.22;;;6.31;64.40
33496;BME280;19836;55.812;37.560;2024-03-02T07:18:55;100961.25;;;6.34;64.40
33496;BME280;19836;55.812;37.560;2024-03-02T07:21:34;100955.09;;;6.38;64.53
33496;BME280;19836;55.812;37.560;2024-03-02T07:24:00;100958.59;;;6.37;64.14
33496;BME280;19836;55.812;37.560;2024-03-02T07:26:29;100963.00;;;6.32;64.07
33496;BME280;19836;55.812;37.560;2024-03-02T07:28:57;100956.81;;;6.36;64.19
33496;BME280;19836;55.812;37.560;2024-03-02T07:31:23;100955.94;;;6.34;64.05
33496;BME280;19836;55.812;37.560;2024-03-02T07:33:49;100952.34;;;6.28;63.84
33496;BME280;19836;55.812;37.560;2024-03-02T07:36:15;100959.38;;;6.17;63.89
33496;BME280;19836;55.812;37.560;2024-03-02T07:38:42;100954.03;;;6.19;64.06
33496;BME280;19836;55.812;37.560;2024-03-02T07:41:08;100947.88;;;6.25;64.05
33496;BME280;19836;55.812;37.560;2024-03-02T07:43:34;100939.97;;;6.34;64.26
33496;BME280;19836;55.812;37.560;2024-03-02T07:46:00;100935.63;;;6.48;64.08
33496;BME280;19836;55.812;37.560;2024-03-02T07:48:26;100943.69;;;6.63;63.72
33496;BME280;19836;55.812;37.560;2024-03-02T07:50:52;100940.16;;;6.74;63.60
33496;BME280;19836;55.812;37.560;2024-03-02T07:53:18;100938.41;;;6.81;63.17
33496;BME280;19836;55.812;37.560;2024-03-02T07:55:44;100936.66;;;6.83;63.28
33496;BME280;19836;55.812;37.560;2024-03-02T07:58:10;100936.63;;;6.77;62.85
33496;BME280;19836;55.812;37.560;2024-03-02T08:00:39;100941.03;;;6.73;62.71
33496;BME280;19836;55.812;37.560;2024-03-02T08:03:06;100936.63;;;6.77;62.86
33496;BME280;19836;55.812;37.560;2024-03-02T08:05:32;100933.09;;;6.81;62.67
33496;BME280;19836;55.812;37.560;2024-03-02T08:07:58;100931.31;;;6.86;62.55
33496;BME280;19836;55.812;37.560;2024-03-02T08:10:24;100935.78;;;6.94;62.55
33496;BME280;19836;55.812;37.560;2024-03-02T08:12:50;100931.38;;;7.07;62.41
33496;BME280;19836;55.812;37.560;2024-03-02T08:15:16;100921.63;;;7.13;62.21
33496;BME280;19836;55.812;37.560;2024-03-02T08:17:42;100923.44;;;7.19;62.07
33496;BME280;19836;55.812;37.560;2024-03-02T08:20:14;100927.00;;;7.17;61.72
33496;BME280;19836;55.812;37.560;2024-03-02T08:22:40;100928.75;;;7.12;61.69
33496;BME280;19836;55.812;37.560;2024-03-02T08:25:08;100938.53;;;7.14;61.73
33496;BME280;19836;55.812;37.560;2024-03-02T08:27:35;100930.56;;;7.20;61.35
33496;BME280;19836;55.812;37.560;2024-03-02T08:30:01;100935.88;;;7.14;61.57
33496;BME280;19836;55.812;37.560;2024-03-02T08:32:33;100935.88;;;7.14;61.53
33496;BME280;19836;55.812;37.560;2024-03-02T08:34:59;100934.97;;;7.21;61.37
33496;BME280;19836;55.812;37.560;2024-03-02T08:37:25;100934.09;;;7.29;61.11
33496;BME280;19836;55.812;37.560;2024-03-02T08:39:52;100933.22;;;7.20;61.26
33496;BME280;19836;55.812;37.560;2024-03-02T08:42:18;100930.50;;;7.05;60.99
33496;BME280;19836;55.812;37.560;2024-03-02T08:44:44;100932.31;;;7.11;61.01
33496;BME280;19836;55.812;37.560;2024-03-02T08:47:10;100926.09;;;7.13;60.66
33496;BME280;19836;55.812;37.560;2024-03-02T08:49:35;100932.31;;;7.15;60.50
33496;BME280;19836;55.812;37.560;2024-03-02T08:52:01;100929.69;;;7.30;60.52
33496;BME280;19836;55.812;37.560;2024-03-02T08:54:27;100932.34;;;7.38;60.13
33496;BME280;19836;55.812;37.560;2024-03-02T08:56:53;100931.47;;;7.52;60.06
33496;BME280;19836;55.812;37.560;2024-03-02T08:59:19;100926.16;;;7.61;59.82
33496;BME280;19836;55.812;37.560;2024-03-02T09:01:45;100935.94;;;7.72;59.65
33496;BME280;19836;55.812;37.560;2024-03-02T09:04:11;100927.94;;;7.77;59.23
33496;BME280;19836;55.812;37.560;2024-03-02T09:06:40;100922.59;;;8.01;59.09
33496;BME280;19836;55.812;37.560;2024-03-02T09:09:52;100919.84;;;8.45;58.66
33496;BME280;19836;55.812;37.560;2024-03-02T09:12:48;100918.03;;;8.59;57.90
33496;BME280;19836;55.812;37.560;2024-03-02T09:15:18;100915.28;;;8.78;57.19
33496;BME280;19836;55.812;37.560;2024-03-02T09:17:54;100910.81;;;8.85;56.75
33496;BME280;19836;55.812;37.560;2024-03-02T09:20:21;100912.53;;;8.95;56.61
33496;BME280;19836;55.812;37.560;2024-03-02T09:22:47;100915.34;;;8.66;56.13
33496;BME280;19836;55.812;37.560;2024-03-02T09:25:14;100917.22;;;8.40;56.29
33496;BME280;19836;55.812;37.560;2024-03-02T09:27:41;100920.78;;;8.36;56.57
33496;BME280;19836;55.812;37.560;2024-03-02T09:30:11;100914.53;;;8.49;56.46
33496;BME280;19836;55.812;37.560;2024-03-02T09:32:37;100913.56;;;8.65;56.17
33496;BME280;19836;55.812;37.560;2024-03-02T09:35:04;100911.72;;;8.76;56.17
33496;BME280;19836;55.812;37.560;2024-03-02T09:37:31;100912.63;;;8.72;55.64
33496;BME280;19836;55.812;37.560;2024-03-02T09:39:58;100907.31;;;8.69;55.57
33496;BME280;19836;55.812;37.560;2024-03-02T09:42:28;100905.53;;;8.73;55.54
33496;BME280;19836;55.812;37.560;2024-03-02T09:44:55;100904.69;;;8.57;55.36
33496;BME280;19836;55.812;37.560;2024-03-02T09:47:25;100902.03;;;8.50;55.27
33496;BME280;19836;55.812;37.560;2024-03-02T09:49:52;100895.69;;;8.76;55.38
33496;BME280;19836;55.812;37.560;2024-03-02T09:52:23;100892.00;;;9.04;55.27
33496;BME280;19836;55.812;37.560;2024-03-02T09:55:02;100893.81;;;8.99;54.74
33496;BME280;19836;55.812;37.560;2024-03-02T09:57:29;100897.44;;;8.86;54.99
33496;BME280;19836;55.812;37.560;2024-03-02T09:59:55;100893.94;;;8.75;54.84
33496;BME280;19836;55.812;37.560;2024-03-02T10:02:23;100894.84;;;8.70;54.82
33496;BME280;19836;55.812;37.560;2024-03-02T10:04:55;100895.63;;;8.94;54.99
33496;BME280;19836;55.812;37.560;2024-03-02T10:07:21;100897.34;;;8.98;54.37
33496;BME280;19836;55.812;37.560;2024-03-02T10:09:48;100902.66;;;9.07;54.30
33496;BME280;19836;55.812;37.560;2024-03-02T10:12:17;100901.72;;;9.20;53.95
33496;BME280;19836;55.812;37.560;2024-03-02T10:14:44;100898.19;;;9.12;53.83
33496;BME280;19836;55.812;37.560;2024-03-02T10:17:13;100897.13;;;9.37;53.61
33496;BME280;19836;55.812;37.560;2024-03-02T10:19:39;100892.63;;;9.47;53.12
33496;BME280;19836;55.812;37.560;2024-03-02T10:22:31;100894.28;;;9.58;53.35
33496;BME280;19836;55.812;37.560;2024-03-02T10:25:53;100897.84;;;9.60;53.19
33496;BME280;19836;55.812;37.560;2024-03-02T10:29:41;100899.78;;;9.40;52.77
33496;BME280;19836;55.812;37.560;2024-03-02T10:32:12;100903.47;;;9.18;53.08
33496;BME280;19836;55.812;37.560;2024-03-02T10:35:02;100907.22;;;8.86;53.45
33496;BME280;19836;55.812;37.560;2024-03-02T10:37:30;100911.81;;;8.64;53.77
33496;BME280;19836;55.812;37.560;2024-03-02T10:40:06;100917.16;;;8.54;53.97
33496;BME280;19836;55.812;37.560;2024-03-02T10:42:35;100915.41;;;8.42;54.04
33496;BME280;19836;55.812;37.560;2024-03-02T10:45:12;100919.00;;;8.23;54.58
33496;BME280;19836;55.812;37.560;2024-03-02T10:48:02;100915.47;;;8.24;54.58
33496;BME280;19836;55.812;37.560;2024-03-02T10:54:31;100923.44;;;8.19;54.97
33496;BME280;19836;55.812;37.560;2024-03-02T10:57:03;100921.69;;;8.00;55.01
33496;BME280;19836;55.812;37.560;2024-03-02T10:59:35;100921.69;;;8.02;55.33
33496;BME280;19836;55.812;37.560;2024-03-02T11:02:06;100918.13;;;8.06;55.36
33496;BME280;19836;55.812;37.560;2024-03-02T11:04:55;100911.88;;;8.16;55.14
33496;BME280;19836;55.812;37.560;2024-03-02T11:07:47;100914.56;;;8.24;54.91
33496;BME280;19836;55.812;37.560;2024-03-02T11:10:20;100918.09;;;8.19;55.10
33496;BME280;19836;55.812;37.560;2024-03-02T11:12:58;100904.78;;;8.07;55.11
33496;BME280;19836;55.812;37.560;2024-03-02T11:15:46;100913.69;;;7.96;55.15
33496;BME280;19836;55.812;37.560;2024-03-02T11:18:13;100914.59;;;7.88;55.22
33496;BME280;19836;55.812;37.560;2024-03-02T11:20:40;100915.50;;;7.94;55.40
33496;BME280;19836;55.812;37.560;2024-03-02T11:23:09;100908.31;;;8.08;55.40
33496;BME280;19836;55.812;37.560;2024-03-02T11:25:35;100913.69;;;8.14;55.47
33496;BME280;19836;55.812;37.560;2024-03-02T11:28:04;100913.66;;;8.08;55.53
33496;BME280;19836;55.812;37.560;2024-03-02T11:33:08;100921.72;;;7.92;55.79
33496;BME280;19836;55.812;37.560;2024-03-02T11:35:35;100913.69;;;8.02;55.92
33496;BME280;19836;55.812;37.560;2024-03-02T11:38:04;100914.59;;;7.92;55.90
33496;BME280;19836;55.812;37.560;2024-03-02T11:40:31;100909.28;;;7.89;55.72
33496;BME280;19836;55.812;37.560;2024-03-02T11:42:59;100898.59;;;7.97;55.71
33496;BME280;19836;55.812;37.560;2024-03-02T11:45:26;100895.91;;;8.01;55.34
33496;BME280;19836;55.812;37.560;2024-03-02T11:47:57;100893.22;;;8.10;55.48
33496;BME280;19836;55.812;37.560;2024-03-02T11:50:40;100892.31;;;8.18;55.62
33496;BME280;19836;55.812;37.560;2024-03-02T11:53:08;100894.09;;;8.15;55.45
33496;BME280;19836;55.812;37.560;2024-03-02T11:55:38;100895.03;;;7.97;55.22
33496;BME280;19836;55.812;37.560;2024-03-02T11:58:08;100901.25;;;7.71;55.45
33496;BME280;19836;55.812;37.560;2024-03-02T12:00:41;100895.94;;;7.59;55.70
33496;BME280;19836;55.812;37.560;2024-03-02T12:03:09;100903.94;;;7.52;55.98
33496;BME280;19836;55.812;37.560;2024-03-02T12:05:37;100895.91;;;7.47;56.37
33496;BME280;19836;55.812;37.560;2024-03-02T12:08:05;100894.16;;;7.47;56.16
33496;BME280;19836;55.812;37.560;2024-03-02T12:10:33;100895.06;;;7.48;56.07
33496;BME280;19836;55.812;37.560;2024-03-02T12:13:05;100902.16;;;7.46;56.27
33496;BME280;19836;55.812;37.560;2024-03-02T12:15:38;100901.28;;;7.38;56.30
33496;BME280;19836;55.812;37.560;2024-03-02T12:18:06;100901.25;;;7.37;56.14
33496;BME280;19836;55.812;37.560;2024-03-02T12:20:33;100898.59;;;7.41;56.21
33496;BME280;19836;55.812;37.560;2024-03-02T12:23:01;100904.81;;;7.40;56.23
33496;BME280;19836;55.812;37.560;2024-03-02T12:25:28;100912.81;;;7.34;56.38
33496;BME280;19836;55.812;37.560;2024-03-02T12:27:58;100912.81;;;7.36;56.45
33496;BME280;19836;55.812;37.560;2024-03-02T12:30:32;100904.78;;;7.37;56.49
33496;BME280;19836;55.812;37.560;2024-03-02T12:33:08;100908.38;;;7.45;56.43
33496;BME280;19836;55.812;37.560;2024-03-02T12:39:32;100901.28;;;7.44;56.31
33496;BME280;19836;55.812;37.560;2024-03-02T12:41:58;100905.69;;;7.32;56.22
33496;BME280;19836;55.812;37.560;2024-03-02T12:44:25;100904.78;;;7.25;56.34
33496;BME280;19836;55.812;37.560;2024-03-02T12:46:53;100910.09;;;7.22;56.34
33496;BME280;19836;55.812;37.560;2024-03-02T12:49:28;100906.56;;;7.20;56.68
33496;BME280;19836;55.812;37.560;2024-03-02T12:51:57;100908.31;;;7.19;56.84
33496;BME280;19836;55.812;37.560;2024-03-02T12:54:44;100908.31;;;7.15;56.72
33496;BME280;19836;55.812;37.560;2024-03-02T12:57:21;100898.56;;;7.18;56.83
33496;BME280;19836;55.812;37.560;2024-03-02T13:02:30;100916.31;;;7.07;56.75
33496;BME280;19836;55.812;37.560;2024-03-02T13:04:59;100904.75;;;7.03;56.87
33496;BME280;19836;55.812;37.560;2024-03-02T13:07:26;100916.28;;;6.94;57.00
33496;BME280;19836;55.812;37.560;2024-03-02T13:13:57;100926.88;;;6.83;57.07
33496;BME280;19836;55.812;37.560;2024-03-02T13:17:09;100934.00;;;6.86;57.24
33496;BME280;19836;55.812;37.560;2024-03-02T13:24:40;100929.53;;;6.82;57.25
33496;BME280;19836;55.812;37.560;2024-03-02T13:27:09;100930.41;;;6.77;57.32
33496;BME280;19836;55.812;37.560;2024-03-02T13:29:35;100928.63;;;6.74;57.49
33496;BME280;19836;55.812;37.560;2024-03-02T13:32:08;100924.19;;;6.72;57.24
33496;BME280;19836;55.812;37.560;2024-03-02T13:34:35;100925.91;;;6.62;57.26
33496;BME280;19836;55.812;37.560;2024-03-02T13:37:06;100924.06;;;6.52;57.72
33496;BME280;19836;55.812;37.560;2024-03-02T13:39:36;100924.09;;;6.55;57.99
33496;BME280;19836;55.812;37.560;2024-03-02T13:42:17;100927.59;;;6.49;57.60
33496;BME280;19836;55.812;37.560;2024-03-02T13:44:49;100922.28;;;6.45;57.62
33496;BME280;19836;55.812;37.560;2024-03-02T13:47:17;100931.13;;;6.38;57.64
33496;BME280;19836;55.812;37.560;2024-03-02T13:49:45;100933.75;;;6.35;58.05
33496;BME280;19836;55.812;37.560;2024-03-02T13:52:12;100928.41;;;6.32;58.15
33496;BME280;19836;55.812;37.560;2024-03-02T13:54:43;100933.69;;;6.24;58.16
33496;BME280;19836;55.812;37.560;2024-03-02T13:57:10;100924.81;;;6.22;57.88
33496;BME280;19836;55.812;37.560;2024-03-02T14:02:59;100930.06;;;6.13;58.11
33496;BME280;19836;55.812;37.560;2024-03-02T14:05:29;100934.50;;;6.13;58.02
33496;BME280;19836;55.812;37.560;2024-03-02T14:08:01;100941.53;;;6.05;58.00
33496;BME280;19836;55.812;37.560;2024-03-02T14:10:47;100937.97;;;6.00;58.14
33496;BME280;19836;55.812;37.560;2024-03-02T14:13:30;100933.50;;;5.97;58.29
33496;BME280;19836;55.812;37.560;2024-03-02T14:16:24;100937.03;;;5.95;58.24
33496;BME280;19836;55.812;37.560;2024-03-02T14:19:06;100938.81;;;5.93;58.44
33496;BME280;19836;55.812;37.560;2024-03-02T14:24:46;100943.19;;;5.91;58.47
33496;BME280;19836;55.812;37.560;2024-03-02T14:27:18;100941.44;;;5.92;58.18
33496;BME280;19836;55.812;37.560;2024-03-02T14:29:45;100939.63;;;5.86;58.28
33496;BME280;19836;55.812;37.560;2024-03-02T14:32:21;100936.84;;;5.77;58.27
33496;BME280;19836;55.812;37.560;2024-03-02T14:34:49;100936.81;;;5.72;58.45
33496;BME280;19836;55.812;37.560;2024-03-02T14:37:15;100940.38;;;5.73;58.20
33496;BME280;19836;55.812;37.560;2024-03-02T14:39:42;100937.72;;;5.73;58.63
33496;BME280;19836;55.812;37.560;2024-03-02T14:42:08;100935.00;;;5.67;58.64
33496;BME280;19836;55.812;37.560;2024-03-02T14:44:34;100928.72;;;5.57;58.84
33496;BME280;19836;55.812;37.560;2024-03-02T14:47:03;100934.91;;;5.56;58.68
33496;BME280;19836;55.812;37.560;2024-03-02T14:49:31;100939.34;;;5.57;59.05
33496;BME280;19836;55.812;37.560;2024-03-02T14:51:59;100941.13;;;5.55;58.98
33496;BME280;19836;55.812;37.560;2024-03-02T14:54:28;100943.75;;;5.52;59.13
33496;BME280;19836;55.812;37.560;2024-03-02T14:57:03;100941.97;;;5.53;59.14
33496;BME280;19836;55.812;37.560;2024-03-02T14:59:41;100938.41;;;5.52;59.24
33496;BME280;19836;55.812;37.560;2024-03-02T15:02:33;100935.78;;;5.54;58.83
33496;BME280;19836;55.812;37.560;2024-03-02T15:05:00;100948.97;;;5.45;59.09
33496;BME280;19836;55.812;37.560;2024-03-02T15:07:26;100940.94;;;5.39;59.30
33496;BME280;19836;55.812;37.560;2024-03-02T15:09:57;100948.03;;;5.40;59.38
33496;BME280;19836;55.812;37.560;2024-03-02T15:13:07;100941.03;;;5.46;59.39
33496;BME280;19836;55.812;37.560;2024-03-02T15:19:35;100939.22;;;5.44;59.33
33496;BME280;19836;55.812;37.560;2024-03-02T15:23:27;100947.22;;;5.44;59.36
33496;BME280;19836;55.812;37.560;2024-03-02T15:25:56;100944.53;;;5.44;59.57
33496;BME280;19836;55.812;37.560;2024-03-02T15:28:22;100954.25;;;5.42;59.36
33496;BME280;19836;55.812;37.560;2024-03-02T15:30:49;100949.75;;;5.35;59.35
33496;BME280;19836;55.812;37.560;2024-03-02T15:33:18;100951.50;;;5.30;59.46
33496;BME280;19836;55.812;37.560;2024-03-02T15:35:44;100953.25;;;5.31;59.59
33496;BME280;19836;55.812;37.560;2024-03-02T15:38:10;100948.00;;;5.37;59.72
33496;BME280;19836;55.812;37.560;2024-03-02T15:40:40;100953.31;;;5.34;59.76
33496;BME280;19836;55.812;37.560;2024-03-02T15:43:07;100953.25;;;5.29;59.74
33496;BME280;19836;55.812;37.560;2024-03-02T15:45:33;100947.06;;;5.29;59.64
33496;BME280;19836;55.812;37.560;2024-03-02T15:48:00;100952.38;;;5.30;59.87
33496;BME280;19836;55.812;37.560;2024-03-02T15:50:27;100957.69;;;5.29;59.97
33496;BME280;19836;55.812;37.560;2024-03-02T15:52:53;100958.56;;;5.28;59.67
33496;BME280;19836;55.812;37.560;2024-03-02T15:55:21;100949.72;;;5.29;59.96
33496;BME280;19836;55.812;37.560;2024-03-02T15:57:47;100944.41;;;5.29;59.88
33496;BME280;19836;55.812;37.560;2024-03-02T16:00:14;100949.66;;;5.26;60.08
33496;BME280;19836;55.812;37.560;2024-03-02T16:02:40;100954.03;;;5.19;60.25
33496;BME280;19836;55.812;37.560;2024-03-02T16:05:09;100951.38;;;5.21;60.37
33496;BME280;19836;55.812;37.560;2024-03-02T16:07:35;100947.84;;;5.22;60.03
33496;BME280;19836;55.812;37.560;2024-03-02T16:10:02;100948.78;;;5.25;60.04
33496;BME280;19836;55.812;37.560;2024-03-02T16:12:32;100950.50;;;5.22;60.31
33496;BME280;19836;55.812;37.560;2024-03-02T16:14:58;100960.25;;;5.21;60.12
33496;BME280;19836;55.812;37.560;2024-03-02T16:17:25;100959.34;;;5.18;60.25
33496;BME280;19836;55.812;37.560;2024-03-02T16:19:53;100949.56;;;5.14;60.20
33496;BME280;19836;55.812;37.560;2024-03-02T16:22:27;100952.16;;;5.11;60.36
33496;BME280;19836;55.812;37.560;2024-03-02T16:33:14;100957.53;;;5.17;60.13
33496;BME280;19836;55.812;37.560;2024-03-02T16:35:45;100961.94;;;5.12;60.40
33496;BME280;19836;55.812;37.560;2024-03-02T16:41:13;100969.03;;;5.13;60.65
33496;BME280;19836;55.812;37.560;2024-03-02T16:43:49;100961.91;;;5.09;60.74
33496;BME280;19836;55.812;37.560;2024-03-02T16:56:09;100963.53;;;4.98;61.08
33496;BME280;19836;55.812;37.560;2024-03-02T16:58:37;100973.19;;;4.91;61.17
33496;BME280;19836;55.812;37.560;2024-03-02T17:01:04;100966.09;;;4.89;61.25
33496;BME280;19836;55.812;37.560;2024-03-02T17:03:35;100962.53;;;4.90;61.47
33496;BME280;19836;55.812;37.560;2024-03-02T17:06:02;100966.97;;;4.88;61.56
33496;BME280;19836;55.812;37.560;2024-03-02T17:08:29;100972.28;;;4.88;61.33
33496;BME280;19836;55.812;37.560;2024-03-02T17:15:42;100974.91;;;4.86;61.67
33496;BME280;19836;55.812;37.560;2024-03-02T17:23:50;100978.38;;;4.81;61.19
33496;BME280;19836;55.812;37.560;2024-03-02T17:26:16;100986.31;;;4.78;61.41
33496;BME280;19836;55.812;37.560;2024-03-02T17:28:45;100980.94;;;4.72;61.42
33496;BME280;19836;55.812;37.560;2024-03-02T17:31:16;100975.56;;;4.69;61.41
33496;BME280;19836;55.812;37.560;2024-03-02T17:33:48;100980.81;;;4.66;61.46
33496;BME280;19836;55.812;37.560;2024-03-02T17:36:18;100979.00;;;4.63;61.41
33496;BME280;19836;55.812;37.560;2024-03-02T17:38:48;100984.22;;;4.56;61.64
33496;BME280;19836;55.812;37.560;2024-03-02T17:41:28;100985.06;;;4.53;61.64
33496;BME280;19836;55.812;37.560;2024-03-02T17:43:55;100985.97;;;4.54;61.70
33496;BME280;19836;55.812;37.560;2024-03-02T17:46:23;100979.56;;;4.37;61.62
33496;BME280;19836;55.812;37.560;2024-03-02T17:48:54;100987.31;;;4.25;62.00
33496;BME280;19836;55.812;37.560;2024-03-02T17:51:59;100988.06;;;4.16;62.06
33496;BME280;19836;55.812;37.560;2024-03-02T17:54:36;100997.69;;;4.10;62.58
33496;BME280;19836;55.812;37.560;2024-03-02T17:57:02;100994.97;;;4.05;62.48
33496;BME280;19836;55.812;37.560;2024-03-02T17:59:29;100993.25;;;4.09;62.67
33496;BME280;19836;55.812;37.560;2024-03-02T18:01:55;100985.41;;;4.15;62.49
33496;BME280;19836;55.812;37.560;2024-03-02T18:04:21;100985.41;;;4.15;62.47
33496;BME280;19836;55.812;37.560;2024-03-02T18:06:53;100990.66;;;4.10;62.30
33496;BME280;19836;55.812;37.560;2024-03-02T18:09:24;100989.66;;;4.04;62.35
33496;BME280;19836;55.812;37.560;2024-03-02T18:11:50;100986.81;;;3.92;62.15
33496;BME280;19836;55.812;37.560;2024-03-02T18:14:17;100985.75;;;3.82;62.21
33496;BME280;19836;55.812;37.560;2024-03-02T18:16:43;100991.81;;;3.74;62.14
33496;BME280;19836;55.812;37.560;2024-03-02T18:19:10;100991.59;;;3.62;62.08
33496;BME280;19836;55.812;37.560;2024-03-02T18:21:36;100992.34;;;3.55;62.06
33496;BME280;19836;55.812;37.560;2024-03-02T18:24:02;101000.19;;;3.49;61.62